createdAt,value
2023-04-16T00:00:23.805Z,3.70
2023-04-16T00:02:51.059Z,3.40
2023-04-16T00:05:18.353Z,3.10
2023-04-16T00:07:45.309Z,3.65
2023-04-16T00:10:12.321Z,3.80
2023-04-16T00:12:39.263Z,3.55
2023-04-16T00:15:07.104Z,3.33
2023-04-16T00:17:34.961Z,3.63
2023-04-16T00:20:02.128Z,3.45
2023-04-16T00:22:30.952Z,3.70
2023-04-16T00:24:57.962Z,3.90
2023-04-16T00:27:25.017Z,3.67
2023-04-16T00:29:51.896Z,3.92
2023-04-16T00:32:19.180Z,3.85
2023-04-16T00:34:46.284Z,3.80
2023-04-16T00:37:13.660Z,3.50
2023-04-16T00:39:40.732Z,4.05
2023-04-16T00:42:07.921Z,3.67
2023-04-16T00:44:37.740Z,3.72
2023-04-16T00:47:04.834Z,3.80
2023-04-16T00:49:31.938Z,3.95
2023-04-16T00:51:59.760Z,3.90
2023-04-16T00:54:26.850Z,3.80
2023-04-16T00:56:53.866Z,3.97
2023-04-16T00:59:20.994Z,4.35
2023-04-16T01:01:48.269Z,4.00
2023-04-16T01:04:15.357Z,4.07
2023-04-16T01:06:43.240Z,4.05
2023-04-16T01:09:11.769Z,3.60
2023-04-16T01:11:39.901Z,3.70
2023-04-16T01:14:07.047Z,3.53
2023-04-16T01:16:34.087Z,3.58
2023-04-16T01:19:01.231Z,3.80
2023-04-16T01:21:28.256Z,3.75
2023-04-16T01:23:55.152Z,3.40
2023-04-16T01:26:22.104Z,3.53
2023-04-16T01:28:49.086Z,3.42
2023-04-16T01:31:16.260Z,3.60
2023-04-16T01:33:50.186Z,3.38
2023-04-16T01:36:17.339Z,3.72
2023-04-16T01:38:45.767Z,3.55
2023-04-16T01:41:12.670Z,3.35
2023-04-16T01:43:42.589Z,3.28
2023-04-16T01:46:18.931Z,3.40
2023-04-16T01:48:47.183Z,3.58
2023-04-16T01:51:14.131Z,3.28
2023-04-16T01:53:41.050Z,3.70
2023-04-16T01:56:08.093Z,3.47
2023-04-16T01:58:35.654Z,3.53
2023-04-16T02:01:02.840Z,3.33
2023-04-16T02:03:31.411Z,3.50
2023-04-16T02:05:58.761Z,3.65
2023-04-16T02:08:25.900Z,3.50
2023-04-16T02:10:52.957Z,3.30
2023-04-16T02:13:20.389Z,4.10
2023-04-16T02:15:48.662Z,3.15
2023-04-16T02:18:20.274Z,3.55
2023-04-16T02:20:49.678Z,3.65
2023-04-16T02:23:17.591Z,3.35
2023-04-16T02:25:46.527Z,3.47
2023-04-16T02:28:16.075Z,3.33
2023-04-16T02:30:44.677Z,3.50
2023-04-16T02:33:13.490Z,3.00
2023-04-16T02:40:43.951Z,3.40
2023-04-16T02:43:11.461Z,3.00
2023-04-16T02:45:38.527Z,2.88
2023-04-16T02:48:07.387Z,3.50
2023-04-16T02:50:34.540Z,3.22
2023-04-16T02:53:01.520Z,3.53
2023-04-16T02:55:29.590Z,3.22
2023-04-16T02:57:56.743Z,3.45
2023-04-16T03:00:23.825Z,3.30
2023-04-16T03:02:51.178Z,3.58
2023-04-16T03:05:18.412Z,3.38
2023-04-16T03:07:45.529Z,3.38
2023-04-16T03:10:13.914Z,3.30
2023-04-16T03:12:41.028Z,3.40
2023-04-16T03:15:08.678Z,3.50
2023-04-16T03:17:35.845Z,3.35
2023-04-16T03:20:02.938Z,3.28
2023-04-16T03:22:30.819Z,3.28
2023-04-16T03:24:57.915Z,3.40
2023-04-16T03:27:24.923Z,3.58
2023-04-16T03:29:52.582Z,3.30
2023-04-16T03:32:19.607Z,3.30
2023-04-16T03:34:46.651Z,3.45
2023-04-16T03:37:13.688Z,3.53
2023-04-16T03:39:40.743Z,3.47
2023-04-16T03:42:09.068Z,3.72
2023-04-16T03:44:36.245Z,3.95
2023-04-16T03:47:03.341Z,3.60
2023-04-16T03:49:30.441Z,3.05
2023-04-16T03:51:58.554Z,3.45
2023-04-16T03:54:26.870Z,3.90
2023-04-16T03:57:05.737Z,3.50
2023-04-16T03:59:33.456Z,4.82
2023-04-16T04:02:00.907Z,15.73
2023-04-16T04:04:28.175Z,12.35
2023-04-16T04:06:55.332Z,13.35
2023-04-16T04:09:23.557Z,8.18
2023-04-16T04:11:50.729Z,8.23
2023-04-16T04:14:17.859Z,7.30
2023-04-16T04:16:44.929Z,4.72
2023-04-16T04:19:11.978Z,4.55
2023-04-16T04:21:39.129Z,4.30
2023-04-16T04:24:06.495Z,4.35
2023-04-16T04:26:34.267Z,3.67
2023-04-16T04:29:01.373Z,3.72
2023-04-16T04:31:28.451Z,4.10
2023-04-16T04:33:56.147Z,4.18
2023-04-16T04:36:23.323Z,4.10
2023-04-16T04:38:50.503Z,4.10
2023-04-16T04:41:17.600Z,3.55
2023-04-16T04:43:44.596Z,3.92
2023-04-16T04:46:12.677Z,4.15
2023-04-16T04:48:41.017Z,3.90
2023-04-16T04:51:08.050Z,3.78
2023-04-16T04:53:35.135Z,4.20
2023-04-16T04:56:11.781Z,4.03
2023-04-16T04:58:40.640Z,4.10
2023-04-16T05:01:07.775Z,3.85
2023-04-16T05:03:34.961Z,3.97
2023-04-16T05:06:01.987Z,3.85
2023-04-16T05:08:29.035Z,3.80
2023-04-16T05:10:56.100Z,4.15
2023-04-16T05:13:23.062Z,4.38
2023-04-16T05:15:50.024Z,3.80
2023-04-16T05:18:17.164Z,4.28
2023-04-16T05:20:44.154Z,3.55
2023-04-16T05:23:11.331Z,4.35
2023-04-16T05:25:38.448Z,4.00
2023-04-16T05:28:05.569Z,3.70
2023-04-16T05:30:32.577Z,3.75
2023-04-16T05:33:00.020Z,3.40
2023-04-16T05:35:27.784Z,3.90
2023-04-16T05:37:54.916Z,3.78
2023-04-16T05:40:22.094Z,3.85
2023-04-16T05:42:49.412Z,3.88
2023-04-16T05:45:16.523Z,3.75
2023-04-16T05:47:43.675Z,3.65
2023-04-16T05:50:11.130Z,3.90
2023-04-16T05:52:38.603Z,3.22
2023-04-16T05:55:06.275Z,4.10
2023-04-16T05:57:33.546Z,3.90
2023-04-16T06:00:00.580Z,3.70
2023-04-16T06:02:27.945Z,3.53
2023-04-16T06:04:55.013Z,3.80
2023-04-16T06:07:22.547Z,4.28
2023-04-16T06:09:49.532Z,3.78
2023-04-16T06:12:16.586Z,4.38
2023-04-16T06:14:43.539Z,3.90
2023-04-16T06:17:10.558Z,3.70
2023-04-16T06:19:37.601Z,3.67
2023-04-16T06:22:06.531Z,4.03
2023-04-16T06:24:34.285Z,3.85
2023-04-16T06:27:01.153Z,4.10
2023-04-16T06:29:40.060Z,3.90
2023-04-16T06:32:08.367Z,3.95
2023-04-16T06:34:35.343Z,3.80
2023-04-16T06:37:02.402Z,3.58
2023-04-16T06:39:29.451Z,3.78
2023-04-16T06:41:56.529Z,3.63
2023-04-16T06:44:23.523Z,4.03
2023-04-16T06:46:51.126Z,3.88
2023-04-16T06:49:18.059Z,3.65
2023-04-16T06:51:45.081Z,3.75
2023-04-16T06:54:12.150Z,4.28
2023-04-16T06:56:39.188Z,3.40
2023-04-16T06:59:07.037Z,4.28
2023-04-16T07:01:34.340Z,3.95
2023-04-16T07:04:01.531Z,3.80
2023-04-16T07:06:28.680Z,3.40
2023-04-16T07:08:55.781Z,3.72
2023-04-16T07:11:22.766Z,3.55
2023-04-16T07:13:51.259Z,4.13
2023-04-16T07:16:18.339Z,3.70
2023-04-16T07:18:45.593Z,3.95
2023-04-16T07:21:12.705Z,3.60
2023-04-16T07:23:39.891Z,4.00
2023-04-16T07:26:07.220Z,4.10
2023-04-16T07:28:34.351Z,3.78
2023-04-16T07:31:01.336Z,3.70
2023-04-16T07:33:28.428Z,4.05
2023-04-16T07:35:55.483Z,3.75
2023-04-16T07:38:22.511Z,3.80
2023-04-16T07:40:49.601Z,3.85
2023-04-16T07:43:16.647Z,3.50
2023-04-16T07:45:43.638Z,3.38
2023-04-16T07:48:11.104Z,3.55
2023-04-16T07:50:38.146Z,3.70
2023-04-16T07:53:07.672Z,4.00
2023-04-16T07:55:34.748Z,3.65
2023-04-16T07:58:02.914Z,3.67
2023-04-16T08:00:29.981Z,4.22
2023-04-16T08:02:57.146Z,3.80
2023-04-16T08:05:24.355Z,3.80
2023-04-16T08:07:51.370Z,3.40
2023-04-16T08:10:18.427Z,3.47
2023-04-16T08:12:45.607Z,3.70
2023-04-16T08:15:12.715Z,4.00
2023-04-16T08:17:39.752Z,3.80
2023-04-16T08:20:07.570Z,3.80
2023-04-16T08:22:34.489Z,3.72
2023-04-16T08:25:01.829Z,3.97
2023-04-16T08:27:31.464Z,4.05
2023-04-16T08:29:58.569Z,3.97
2023-04-16T08:32:26.456Z,3.90
2023-04-16T08:34:53.575Z,3.60
2023-04-16T08:37:20.683Z,3.72
2023-04-16T08:39:47.590Z,3.85
2023-04-16T08:42:22.870Z,4.10
2023-04-16T08:44:50.109Z,3.90
2023-04-16T08:47:17.131Z,3.88
2023-04-16T08:49:45.001Z,3.97
2023-04-16T08:52:16.165Z,3.92
2023-04-16T08:54:57.314Z,3.83
2023-04-16T08:57:25.793Z,3.45
2023-04-16T08:59:54.062Z,4.07
2023-04-16T09:02:21.242Z,3.80
2023-04-16T09:04:48.794Z,4.10
2023-04-16T09:07:15.982Z,4.07
2023-04-16T09:09:42.920Z,4.13
2023-04-16T09:12:10.090Z,4.45
2023-04-16T09:14:38.256Z,3.90
2023-04-16T09:17:05.238Z,3.78
2023-04-16T09:19:32.292Z,4.13
2023-04-16T09:21:59.390Z,3.65
2023-04-16T09:24:26.376Z,3.63
2023-04-16T09:26:53.568Z,3.90
2023-04-16T09:29:40.256Z,3.47
2023-04-16T09:32:11.578Z,4.50
2023-04-16T09:35:08.526Z,3.60
2023-04-16T09:37:35.527Z,3.83
2023-04-16T09:40:06.687Z,4.10
2023-04-16T09:42:36.255Z,3.88
2023-04-16T09:45:05.568Z,4.07
2023-04-16T09:47:43.656Z,4.10
2023-04-16T09:50:16.470Z,4.10
2023-04-16T09:52:47.933Z,4.07
2023-04-16T09:55:15.501Z,4.20
2023-04-16T09:57:42.470Z,4.10
2023-04-16T10:00:10.264Z,3.83
2023-04-16T10:02:41.758Z,4.35
2023-04-16T10:05:09.651Z,4.32
2023-04-16T10:07:36.925Z,4.50
2023-04-16T10:10:04.376Z,3.78
2023-04-16T10:12:35.759Z,3.92
2023-04-16T10:15:02.738Z,4.10
2023-04-16T10:17:31.663Z,4.03
2023-04-16T10:19:58.714Z,4.07
2023-04-16T10:22:26.236Z,4.13
2023-04-16T10:24:53.266Z,3.92
2023-04-16T10:27:20.394Z,4.43
2023-04-16T10:29:47.403Z,4.70
2023-04-16T10:32:14.464Z,4.05
2023-04-16T10:34:41.469Z,3.75
2023-04-16T10:37:08.432Z,4.03
2023-04-16T10:39:37.511Z,4.13
2023-04-16T10:42:12.080Z,4.10
2023-04-16T10:44:45.278Z,4.70
2023-04-16T10:47:13.527Z,4.38
2023-04-16T10:49:41.131Z,3.90
2023-04-16T10:52:12.768Z,4.45
2023-04-16T10:54:39.996Z,4.30
2023-04-16T10:57:12.350Z,4.75
2023-04-16T10:59:39.865Z,4.20
2023-04-16T11:02:17.908Z,4.22
2023-04-16T11:04:49.218Z,4.68
2023-04-16T11:07:20.664Z,4.22
2023-04-16T11:10:02.554Z,4.40
2023-04-16T11:12:44.983Z,4.30
2023-04-16T11:15:13.334Z,3.80
2023-04-16T11:17:47.182Z,3.97
2023-04-16T11:20:20.424Z,4.32
2023-04-16T11:22:53.116Z,4.30
2023-04-16T11:25:30.287Z,4.07
2023-04-16T11:28:01.161Z,4.28
2023-04-16T11:30:29.502Z,4.30
2023-04-16T11:32:56.648Z,4.20
2023-04-16T11:35:23.798Z,4.00
2023-04-16T11:37:50.695Z,4.15
2023-04-16T11:40:17.734Z,4.35
2023-04-16T11:42:44.985Z,4.32
2023-04-16T11:45:12.316Z,4.00
2023-04-16T11:47:46.130Z,4.03
2023-04-16T11:50:22.163Z,3.90
2023-04-16T11:52:49.872Z,4.10
2023-04-16T11:55:16.829Z,4.20
2023-04-16T11:57:44.010Z,4.03
2023-04-16T12:00:14.066Z,4.20
2023-04-16T12:02:55.656Z,4.63
2023-04-16T12:05:39.413Z,4.57
2023-04-16T12:08:10.719Z,4.55
2023-04-16T12:10:54.062Z,4.35
2023-04-16T12:13:21.210Z,4.50
2023-04-16T12:15:55.309Z,4.05
2023-04-16T12:18:23.856Z,4.25
2023-04-16T12:20:53.578Z,4.57
2023-04-16T12:23:28.066Z,4.55
2023-04-16T12:25:55.270Z,4.28
2023-04-16T12:28:28.126Z,4.40
2023-04-16T12:30:55.209Z,4.55
2023-04-16T12:33:22.232Z,4.60
2023-04-16T12:35:49.411Z,4.55
2023-04-16T12:38:16.976Z,4.55
2023-04-16T12:40:44.159Z,4.50
2023-04-16T12:43:11.229Z,4.35
2023-04-16T12:45:39.052Z,4.47
2023-04-16T12:48:06.250Z,4.55
2023-04-16T12:50:33.274Z,4.30
2023-04-16T12:53:00.313Z,4.70
2023-04-16T12:55:27.474Z,4.68
2023-04-16T12:57:54.501Z,4.57
2023-04-16T13:00:21.585Z,4.07
2023-04-16T13:02:48.757Z,4.88
2023-04-16T13:05:17.347Z,5.05
2023-04-16T13:07:44.330Z,4.78
2023-04-16T13:10:11.722Z,4.60
2023-04-16T13:12:38.866Z,5.00
2023-04-16T13:15:06.324Z,5.13
2023-04-16T13:17:33.698Z,4.55
2023-04-16T13:20:00.763Z,4.60
2023-04-16T13:22:27.849Z,4.38
2023-04-16T13:24:54.755Z,4.95
2023-04-16T13:27:21.874Z,5.75
2023-04-16T13:29:48.884Z,4.35
2023-04-16T13:32:16.232Z,4.35
2023-04-16T13:34:43.160Z,4.55
2023-04-16T13:37:10.374Z,4.28
2023-04-16T13:39:37.364Z,5.20
2023-04-16T13:42:04.571Z,4.80
2023-04-16T13:44:31.548Z,4.85
2023-04-16T13:46:58.999Z,4.68
2023-04-16T13:49:26.211Z,4.28
2023-04-16T13:51:53.183Z,4.28
2023-04-16T13:54:20.429Z,4.57
2023-04-16T13:56:47.396Z,4.00
2023-04-16T13:59:15.724Z,4.10
2023-04-16T14:01:42.652Z,4.47
2023-04-16T14:04:09.779Z,5.30
2023-04-16T14:06:36.900Z,4.90
2023-04-16T14:09:04.481Z,5.00
2023-04-16T14:11:31.728Z,4.57
2023-04-16T14:13:58.862Z,4.53
2023-04-16T14:16:26.465Z,4.85
2023-04-16T14:18:53.639Z,5.15
2023-04-16T14:21:20.900Z,4.75
2023-04-16T14:23:48.040Z,5.10
2023-04-16T14:26:14.948Z,5.25
2023-04-16T14:28:42.167Z,5.30
2023-04-16T14:31:09.333Z,5.07
2023-04-16T14:33:36.964Z,5.03
2023-04-16T14:36:04.295Z,5.03
2023-04-16T14:38:31.417Z,4.93
2023-04-16T14:41:00.304Z,5.28
2023-04-16T14:43:27.589Z,5.13
2023-04-16T14:45:54.678Z,5.18
2023-04-16T14:48:22.182Z,5.85
2023-04-16T14:50:49.211Z,5.35
2023-04-16T14:53:16.446Z,5.30
2023-04-16T14:55:44.144Z,5.30
2023-04-16T14:58:11.248Z,6.47
2023-04-16T15:00:38.239Z,8.75
2023-04-16T15:03:06.058Z,8.50
2023-04-16T15:05:33.238Z,8.32
2023-04-16T15:08:00.717Z,5.57
2023-04-16T15:10:28.080Z,6.32
2023-04-16T15:12:55.073Z,6.18
2023-04-16T15:15:22.075Z,7.50
2023-04-16T15:17:51.047Z,7.28
2023-04-16T15:20:18.261Z,6.75
2023-04-16T15:22:45.232Z,5.15
2023-04-16T15:25:12.633Z,5.20
2023-04-16T15:27:39.632Z,5.53
2023-04-16T15:30:07.458Z,4.65
2023-04-16T15:32:34.522Z,5.07
2023-04-16T15:35:02.828Z,4.93
2023-04-16T15:37:31.114Z,5.00
2023-04-16T15:39:58.159Z,5.30
2023-04-16T15:42:25.253Z,5.25
2023-04-16T15:44:52.170Z,5.00
2023-04-16T15:47:19.198Z,5.22
2023-04-16T15:49:46.195Z,5.70
2023-04-16T15:52:13.398Z,6.20
2023-04-16T15:54:40.903Z,4.93
2023-04-16T15:57:07.967Z,5.55
2023-04-16T15:59:34.988Z,14.57
2023-04-16T16:02:02.564Z,13.02
2023-04-16T16:04:30.563Z,14.52
2023-04-16T16:06:57.564Z,13.35
2023-04-16T16:09:28.034Z,11.75
2023-04-16T16:11:55.176Z,10.25
2023-04-16T16:14:22.233Z,9.30
2023-04-16T16:16:49.302Z,9.02
2023-04-16T16:19:16.708Z,11.10
2023-04-16T16:21:43.770Z,11.32
2023-04-16T16:24:10.925Z,9.00
2023-04-16T16:26:38.154Z,10.93
2023-04-16T16:29:05.727Z,10.05
2023-04-16T16:31:32.873Z,10.90
2023-04-16T16:33:59.866Z,8.23
2023-04-16T16:36:27.488Z,7.35
2023-04-16T16:38:55.229Z,6.80
2023-04-16T16:41:22.567Z,6.00
2023-04-16T16:43:50.385Z,5.30
2023-04-16T16:46:17.493Z,5.25
2023-04-16T16:48:44.536Z,5.57
2023-04-16T16:51:11.628Z,5.07
2023-04-16T16:53:38.841Z,5.10
2023-04-16T16:56:09.143Z,4.88
2023-04-16T16:58:36.110Z,5.20
2023-04-16T17:01:03.261Z,5.35
2023-04-16T17:03:30.458Z,5.03
2023-04-16T17:05:57.537Z,4.85
2023-04-16T17:08:24.527Z,4.70
2023-04-16T17:10:51.674Z,4.82
2023-04-16T17:13:20.563Z,4.78
2023-04-16T17:15:47.484Z,4.60
2023-04-16T17:18:14.458Z,4.30
2023-04-16T17:20:41.419Z,4.80
2023-04-16T17:23:08.524Z,4.15
2023-04-16T17:25:35.723Z,4.13
2023-04-16T17:28:03.183Z,4.18
2023-04-16T17:30:31.297Z,4.47
2023-04-16T17:32:58.504Z,4.00
2023-04-16T17:35:25.734Z,4.00
2023-04-16T17:37:52.745Z,4.07
2023-04-16T17:40:20.045Z,4.30
2023-04-16T17:42:48.833Z,4.13
2023-04-16T17:45:16.011Z,4.43
2023-04-16T17:47:44.472Z,5.07
2023-04-16T17:50:12.075Z,6.22
2023-04-16T17:52:39.139Z,5.88
2023-04-16T17:55:07.768Z,6.15
2023-04-16T17:57:34.927Z,6.32
2023-04-16T18:00:01.876Z,6.35
2023-04-16T18:02:40.829Z,7.07
2023-04-16T18:05:08.295Z,6.07
2023-04-16T18:07:36.455Z,6.75
2023-04-16T18:10:03.572Z,7.05
2023-04-16T18:12:30.852Z,7.28
2023-04-16T18:14:57.877Z,7.95
2023-04-16T18:17:25.132Z,7.20
2023-04-16T18:19:52.133Z,7.55
2023-04-16T18:22:19.152Z,8.02
2023-04-16T18:24:46.803Z,8.43
2023-04-16T18:27:13.824Z,6.40
2023-04-16T18:29:41.018Z,7.50
2023-04-16T18:32:11.690Z,6.32
2023-04-16T18:34:39.537Z,6.75
2023-04-16T18:37:06.943Z,6.53
2023-04-16T18:39:34.051Z,5.80
2023-04-16T18:42:01.539Z,5.53
2023-04-16T18:44:28.511Z,6.40
2023-04-16T18:46:55.686Z,5.88
2023-04-16T18:49:22.800Z,6.32
2023-04-16T18:51:49.830Z,5.60
2023-04-16T18:54:16.842Z,5.82
2023-04-16T18:56:43.897Z,5.22
2023-04-16T18:59:10.991Z,5.28
2023-04-16T19:01:38.253Z,5.32
2023-04-16T19:04:05.828Z,5.07
2023-04-16T19:06:33.048Z,5.72
2023-04-16T19:09:00.335Z,4.38
2023-04-16T19:11:27.458Z,5.60
2023-04-16T19:13:54.396Z,4.47
2023-04-16T19:16:21.433Z,4.72
2023-04-16T19:18:48.484Z,5.00
2023-04-16T19:21:15.604Z,5.13
2023-04-16T19:23:42.907Z,4.80
2023-04-16T19:26:09.862Z,4.60
2023-04-16T19:28:38.778Z,5.32
2023-04-16T19:31:06.498Z,5.55
2023-04-16T19:33:33.622Z,4.93
2023-04-16T19:36:01.897Z,5.50
2023-04-16T19:38:29.263Z,5.10
2023-04-16T19:40:56.378Z,5.22
2023-04-16T19:43:23.677Z,4.97
2023-04-16T19:45:53.784Z,5.07
2023-04-16T19:48:21.466Z,5.07
2023-04-16T19:50:48.624Z,5.03
2023-04-16T19:53:17.277Z,4.93
2023-04-16T19:55:44.375Z,4.70
2023-04-16T19:58:11.626Z,5.00
2023-04-16T20:00:40.671Z,4.80
2023-04-16T20:03:07.910Z,4.82
2023-04-16T20:05:34.873Z,4.75
2023-04-16T20:08:01.939Z,5.10
2023-04-16T20:10:31.551Z,4.63
2023-04-16T20:12:58.889Z,5.00
2023-04-16T20:15:26.023Z,4.90
2023-04-16T20:17:53.471Z,5.00
2023-04-16T20:20:22.751Z,4.40
2023-04-16T20:22:49.997Z,4.90
2023-04-16T20:25:19.158Z,4.90
2023-04-16T20:27:46.594Z,4.53
2023-04-16T20:30:14.121Z,5.30
2023-04-16T20:32:41.234Z,5.00
2023-04-16T20:35:10.993Z,4.72
2023-04-16T20:37:38.663Z,4.68
2023-04-16T20:40:13.875Z,4.50
2023-04-16T20:42:41.375Z,5.07
2023-04-16T20:45:09.239Z,5.20
2023-04-16T20:47:36.365Z,4.70
2023-04-16T20:50:03.823Z,5.13
2023-04-16T20:52:31.204Z,5.20
2023-04-16T20:54:58.167Z,5.03
2023-04-16T20:57:26.229Z,5.20
2023-04-16T20:59:53.231Z,5.25
2023-04-16T21:02:20.920Z,5.55
2023-04-16T21:04:48.253Z,5.90
2023-04-16T21:07:15.587Z,6.32
2023-04-16T21:09:42.578Z,6.20
2023-04-16T21:12:09.554Z,6.35
2023-04-16T21:14:36.644Z,6.13
2023-04-16T21:17:03.527Z,7.30
2023-04-16T21:19:31.112Z,7.60
2023-04-16T21:21:58.088Z,6.97
2023-04-16T21:24:25.025Z,7.70
2023-04-16T21:26:52.109Z,6.85
2023-04-16T21:29:19.239Z,6.72
2023-04-16T21:31:46.405Z,7.63
2023-04-16T21:34:13.402Z,6.95
2023-04-16T21:36:40.452Z,7.10
2023-04-16T21:39:07.529Z,6.90
2023-04-16T21:41:34.531Z,7.43
2023-04-16T21:44:01.696Z,7.10
2023-04-16T21:46:28.781Z,7.45
2023-04-16T21:48:56.012Z,7.90
2023-04-16T21:51:29.198Z,7.97
2023-04-16T21:53:57.000Z,8.13
2023-04-16T21:56:27.210Z,7.90
2023-04-16T21:58:54.210Z,8.32
2023-04-16T22:01:21.354Z,8.57
2023-04-16T22:03:52.230Z,8.23
2023-04-16T22:06:20.536Z,8.60
2023-04-16T22:08:49.884Z,8.80
2023-04-16T22:11:16.996Z,9.23
2023-04-16T22:13:46.383Z,9.50
2023-04-16T22:16:13.542Z,9.75
2023-04-16T22:18:41.157Z,10.45
2023-04-16T22:21:08.272Z,9.13
2023-04-16T22:23:35.349Z,8.95
2023-04-16T22:26:02.771Z,8.82
2023-04-16T22:28:29.976Z,9.15
2023-04-16T22:30:57.059Z,8.55
2023-04-16T22:33:24.072Z,9.02
2023-04-16T22:35:51.434Z,8.75
2023-04-16T22:38:18.355Z,8.18
2023-04-16T22:40:47.869Z,8.38
2023-04-16T22:43:17.542Z,8.30
2023-04-16T22:45:46.466Z,8.82
2023-04-16T22:48:13.718Z,8.50
2023-04-16T22:50:45.974Z,8.02
2023-04-16T22:53:13.023Z,8.30
2023-04-16T22:55:40.121Z,8.57
2023-04-16T22:58:07.142Z,9.15
2023-04-16T23:00:34.434Z,7.88
2023-04-16T23:03:01.606Z,8.45
2023-04-16T23:05:28.910Z,8.45
2023-04-16T23:07:56.026Z,8.48
2023-04-16T23:10:23.057Z,9.05
2023-04-16T23:12:50.066Z,8.95
2023-04-16T23:15:17.467Z,9.02
2023-04-16T23:17:45.122Z,9.07
2023-04-16T23:20:13.246Z,8.90
2023-04-16T23:22:41.224Z,9.40
2023-04-16T23:25:11.507Z,8.60
2023-04-16T23:27:38.472Z,8.55
2023-04-16T23:30:05.944Z,8.75
2023-04-16T23:32:34.239Z,9.38
2023-04-16T23:35:01.473Z,8.70
2023-04-16T23:37:29.694Z,9.07
2023-04-16T23:39:56.848Z,8.15
2023-04-16T23:42:23.849Z,9.43
2023-04-16T23:44:50.975Z,9.50
2023-04-16T23:47:18.059Z,9.85
2023-04-16T23:49:45.176Z,8.65
2023-04-16T23:52:12.202Z,8.80
2023-04-16T23:54:39.099Z,9.55
2023-04-16T23:57:06.141Z,9.38
2023-04-16T23:59:33.488Z,9.75
